createdAt,value
2019-05-16T00:00:21.814Z,1013.54
2019-05-16T00:01:21.796Z,1013.45
2019-05-16T00:02:21.788Z,1013.53
2019-05-16T00:03:21.781Z,1013.50
2019-05-16T00:04:21.775Z,1013.46
2019-05-16T00:05:21.778Z,1013.45
2019-05-16T00:06:21.758Z,1013.43
2019-05-16T00:07:21.742Z,1013.38
2019-05-16T00:08:21.721Z,1013.40
2019-05-16T00:09:21.719Z,1013.31
2019-05-16T00:10:21.719Z,1013.29
2019-05-16T00:11:21.704Z,1013.25
2019-05-16T00:12:21.669Z,1013.24
2019-05-16T00:13:21.669Z,1013.20
2019-05-16T00:14:21.655Z,1013.22
2019-05-16T00:15:21.656Z,1013.19
2019-05-16T00:16:21.645Z,1013.19
2019-05-16T00:17:21.629Z,1013.16
2019-05-16T00:18:21.626Z,1013.14
2019-05-16T00:19:21.607Z,1013.16
2019-05-16T00:20:21.616Z,1013.14
2019-05-16T00:21:21.586Z,1013.09
2019-05-16T00:22:21.570Z,1013.10
2019-05-16T00:23:21.554Z,1013.08
2019-05-16T00:24:21.556Z,1013.10
2019-05-16T00:25:21.766Z,1013.01
2019-05-16T00:26:21.525Z,1013.00
2019-05-16T00:27:21.507Z,1013.00
2019-05-16T00:28:21.503Z,1012.97
2019-05-16T00:29:21.492Z,1012.93
2019-05-16T00:30:21.499Z,1012.94
2019-05-16T00:31:21.474Z,1012.96
2019-05-16T00:32:21.468Z,1012.95
2019-05-16T00:33:21.451Z,1012.96
2019-05-16T00:34:21.438Z,1012.92
2019-05-16T00:35:21.437Z,1012.90
2019-05-16T00:36:21.447Z,1012.81
2019-05-16T00:37:23.157Z,1012.89
2019-05-16T00:38:21.409Z,1012.83
2019-05-16T00:39:21.393Z,1012.78
2019-05-16T00:40:21.378Z,1012.74
2019-05-16T00:41:21.362Z,1012.75
2019-05-16T00:42:21.372Z,1012.72
2019-05-16T00:43:22.286Z,1012.73
2019-05-16T00:44:21.374Z,1012.70
2019-05-16T00:45:21.322Z,1012.76
2019-05-16T00:46:21.305Z,1012.74
2019-05-16T00:47:21.309Z,1012.68
2019-05-16T00:48:21.289Z,1012.71
2019-05-16T00:49:21.292Z,1012.72
2019-05-16T00:50:21.287Z,1012.67
2019-05-16T00:51:21.278Z,1012.65
2019-05-16T00:52:21.240Z,1012.64
2019-05-16T00:53:21.243Z,1012.58
2019-05-16T00:54:21.211Z,1012.55
2019-05-16T00:55:21.225Z,1012.54
2019-05-16T00:56:21.232Z,1012.53
2019-05-16T00:57:21.225Z,1012.47
2019-05-16T00:58:21.172Z,1012.44
2019-05-16T00:59:21.170Z,1012.43
2019-05-16T01:00:21.194Z,1012.38
2019-05-16T01:01:21.144Z,1012.37
2019-05-16T01:02:21.166Z,1012.38
2019-05-16T01:03:21.124Z,1012.36
2019-05-16T01:04:21.111Z,1012.31
2019-05-16T01:05:21.114Z,1012.25
2019-05-16T01:06:23.021Z,1012.31
2019-05-16T01:07:21.101Z,1012.27
2019-05-16T01:08:21.097Z,1012.23
2019-05-16T01:09:21.069Z,1012.24
2019-05-16T01:10:21.277Z,1012.16
2019-05-16T01:11:21.062Z,1012.11
2019-05-16T01:12:21.748Z,1012.20
2019-05-16T01:13:21.028Z,1012.18
2019-05-16T01:14:21.049Z,1012.14
2019-05-16T01:15:21.021Z,1012.11
2019-05-16T01:16:20.979Z,1012.07
2019-05-16T01:17:20.969Z,1012.04
2019-05-16T01:18:20.969Z,1012.02
2019-05-16T01:19:20.973Z,1011.98
2019-05-16T01:20:20.951Z,1011.96
2019-05-16T01:21:20.933Z,1011.96
2019-05-16T01:22:20.925Z,1011.97
2019-05-16T01:23:20.914Z,1011.98
2019-05-16T01:24:20.883Z,1011.94
2019-05-16T01:25:20.910Z,1011.92
2019-05-16T01:26:20.866Z,1011.91
2019-05-16T01:27:20.851Z,1011.90
2019-05-16T01:28:20.853Z,1011.93
2019-05-16T01:29:20.858Z,1011.85
2019-05-16T01:30:20.844Z,1011.89
2019-05-16T01:31:20.828Z,1011.82
2019-05-16T01:32:20.810Z,1011.86
2019-05-16T01:33:20.801Z,1011.80
2019-05-16T01:34:20.782Z,1011.87
2019-05-16T01:35:20.784Z,1011.75
2019-05-16T01:36:33.380Z,1011.77
2019-05-16T01:37:21.755Z,1011.78
2019-05-16T01:38:20.751Z,1011.76
2019-05-16T01:39:20.724Z,1011.75
2019-05-16T01:40:20.785Z,1011.69
2019-05-16T01:41:20.717Z,1011.72
2019-05-16T01:42:20.730Z,1011.69
2019-05-16T01:43:20.698Z,1011.66
2019-05-16T01:44:20.698Z,1011.63
2019-05-16T01:45:20.669Z,1011.64
2019-05-16T01:46:20.661Z,1011.65
2019-05-16T01:47:20.648Z,1011.65
2019-05-16T01:48:20.648Z,1011.60
2019-05-16T01:49:20.626Z,1011.57
2019-05-16T01:50:20.639Z,1011.50
2019-05-16T01:51:20.590Z,1011.49
2019-05-16T01:52:20.592Z,1011.53
2019-05-16T01:53:20.611Z,1011.47
2019-05-16T01:54:20.587Z,1011.51
2019-05-16T01:55:20.610Z,1011.45
2019-05-16T01:56:20.554Z,1011.41
2019-05-16T01:57:20.553Z,1011.45
2019-05-16T01:58:20.530Z,1011.42
2019-05-16T01:59:20.539Z,1011.46
2019-05-16T02:00:24.720Z,1011.36
2019-05-16T02:01:21.502Z,1011.30
2019-05-16T02:02:20.470Z,1011.32
2019-05-16T02:03:21.257Z,1011.31
2019-05-16T02:04:20.466Z,1011.28
2019-05-16T02:05:20.456Z,1011.19
2019-05-16T02:06:20.448Z,1011.22
2019-05-16T02:07:20.414Z,1011.17
2019-05-16T02:08:20.419Z,1011.09
2019-05-16T02:09:21.190Z,1011.12
2019-05-16T02:10:20.394Z,1011.13
2019-05-16T02:11:20.374Z,1011.10
2019-05-16T02:12:20.359Z,1011.08
2019-05-16T02:13:23.164Z,1011.13
2019-05-16T02:14:20.360Z,1011.06
2019-05-16T02:15:20.365Z,1011.09
2019-05-16T02:16:20.313Z,1011.09
2019-05-16T02:17:20.313Z,1011.06
2019-05-16T02:18:20.296Z,1011.05
2019-05-16T02:19:20.296Z,1011.12
2019-05-16T02:20:20.281Z,1011.07
2019-05-16T02:21:20.281Z,1011.08
2019-05-16T02:22:20.249Z,1011.09
2019-05-16T02:23:20.246Z,1011.04
2019-05-16T02:24:20.235Z,1010.99
2019-05-16T02:25:20.294Z,1011.00
2019-05-16T02:26:20.209Z,1010.92
2019-05-16T02:27:20.202Z,1011.00
2019-05-16T02:28:23.700Z,1010.92
2019-05-16T02:29:21.168Z,1010.94
2019-05-16T02:30:21.731Z,1010.96
2019-05-16T02:31:22.750Z,1010.93
2019-05-16T02:32:22.293Z,1010.84
2019-05-16T02:33:21.478Z,1010.92
2019-05-16T02:34:21.825Z,1010.88
2019-05-16T02:35:21.029Z,1010.93
2019-05-16T02:36:21.611Z,1010.99
2019-05-16T02:37:29.217Z,1010.98
2019-05-16T02:38:21.493Z,1010.90
2019-05-16T02:39:21.200Z,1010.92
2019-05-16T02:40:21.011Z,1010.89
2019-05-16T02:41:21.600Z,1010.89
2019-05-16T02:42:21.217Z,1010.90
2019-05-16T02:43:25.363Z,1010.91
2019-05-16T02:44:24.649Z,1010.85
2019-05-16T02:45:23.886Z,1010.87
2019-05-16T02:46:21.730Z,1010.84
2019-05-16T02:47:20.967Z,1010.82
2019-05-16T02:48:21.285Z,1010.82
2019-05-16T02:49:21.607Z,1010.75
2019-05-16T02:50:22.353Z,1010.77
2019-05-16T02:51:21.193Z,1010.83
2019-05-16T02:52:21.705Z,1010.73
2019-05-16T02:53:22.399Z,1010.80
2019-05-16T02:54:21.758Z,1010.78
2019-05-16T02:55:21.695Z,1010.72
2019-05-16T02:56:21.125Z,1010.75
2019-05-16T02:57:21.321Z,1010.70
2019-05-16T02:58:23.227Z,1010.72
2019-05-16T02:59:20.608Z,1010.73
2019-05-16T03:00:20.954Z,1010.68
2019-05-16T03:01:21.660Z,1010.68
2019-05-16T03:02:20.504Z,1010.69
2019-05-16T03:03:21.349Z,1010.67
2019-05-16T03:04:21.341Z,1010.62
2019-05-16T03:05:20.811Z,1010.64
2019-05-16T03:06:21.118Z,1010.64
2019-05-16T03:07:36.098Z,1010.61
2019-05-16T03:08:21.303Z,1010.64
2019-05-16T03:09:21.391Z,1010.64
2019-05-16T03:10:20.356Z,1010.57
2019-05-16T03:11:21.049Z,1010.54
2019-05-16T03:12:21.145Z,1010.54
2019-05-16T03:13:21.957Z,1010.57
2019-05-16T03:14:21.306Z,1010.57
2019-05-16T03:15:21.779Z,1010.57
2019-05-16T03:16:22.264Z,1010.56
2019-05-16T03:17:21.413Z,1010.52
2019-05-16T03:18:21.413Z,1010.50
2019-05-16T03:19:21.582Z,1010.50
2019-05-16T03:20:21.187Z,1010.47
2019-05-16T03:21:21.660Z,1010.46
2019-05-16T03:22:21.893Z,1010.46
2019-05-16T03:23:21.832Z,1010.45
2019-05-16T03:24:20.560Z,1010.47
2019-05-16T03:25:22.256Z,1010.45
2019-05-16T03:26:20.996Z,1010.44
2019-05-16T03:27:21.540Z,1010.40
2019-05-16T03:28:22.166Z,1010.38
2019-05-16T03:29:21.799Z,1010.41
2019-05-16T03:30:23.590Z,1010.36
2019-05-16T03:31:24.616Z,1010.36
2019-05-16T03:32:24.084Z,1010.36
2019-05-16T03:33:30.230Z,1010.31
2019-05-16T03:34:25.603Z,1010.33
2019-05-16T03:35:24.751Z,1010.33
2019-05-16T03:36:24.857Z,1010.33
2019-05-16T03:37:24.891Z,1010.33
2019-05-16T03:38:21.250Z,1010.31
2019-05-16T03:39:21.210Z,1010.28
2019-05-16T03:40:21.413Z,1010.32
2019-05-16T03:41:21.582Z,1010.30
2019-05-16T03:42:20.515Z,1010.31
2019-05-16T03:43:21.806Z,1010.29
2019-05-16T03:44:21.037Z,1010.26
2019-05-16T03:45:21.209Z,1010.27
2019-05-16T03:46:21.444Z,1010.13
2019-05-16T03:47:21.940Z,1010.19
2019-05-16T03:48:21.373Z,1010.12
2019-05-16T03:49:21.145Z,1010.17
2019-05-16T03:50:21.761Z,1010.17
2019-05-16T03:51:21.549Z,1010.16
2019-05-16T03:52:20.775Z,1010.13
2019-05-16T03:53:21.134Z,1010.14
2019-05-16T03:54:21.118Z,1010.15
2019-05-16T03:55:21.367Z,1010.14
2019-05-16T03:56:21.958Z,1010.14
2019-05-16T03:57:21.276Z,1010.10
2019-05-16T03:58:22.462Z,1010.13
2019-05-16T03:59:21.578Z,1010.16
2019-05-16T04:00:21.154Z,1010.12
2019-05-16T04:01:21.054Z,1010.11
2019-05-16T04:02:21.610Z,1010.07
2019-05-16T04:03:21.228Z,1010.07
2019-05-16T04:04:20.903Z,1010.09
2019-05-16T04:05:21.110Z,1010.10
2019-05-16T04:06:22.014Z,1010.07
2019-05-16T04:07:21.412Z,1010.08
2019-05-16T04:08:23.831Z,1010.05
2019-05-16T04:09:21.040Z,1010.03
2019-05-16T04:10:21.545Z,1010.04
2019-05-16T04:11:23.060Z,1010.04
2019-05-16T04:12:21.363Z,1009.96
2019-05-16T04:13:21.354Z,1010.00
2019-05-16T04:14:21.424Z,1009.98
2019-05-16T04:15:21.420Z,1010.05
2019-05-16T04:16:20.929Z,1010.03
2019-05-16T04:17:21.143Z,1010.02
2019-05-16T04:18:22.019Z,1009.98
2019-05-16T04:19:21.154Z,1010.02
2019-05-16T04:20:21.525Z,1009.98
2019-05-16T04:21:21.935Z,1009.96
2019-05-16T04:22:21.425Z,1009.98
2019-05-16T04:23:20.614Z,1009.92
2019-05-16T04:24:21.615Z,1009.87
2019-05-16T04:25:21.649Z,1009.95
2019-05-16T04:26:21.636Z,1009.95
2019-05-16T04:27:21.505Z,1009.89
2019-05-16T04:28:21.792Z,1009.93
2019-05-16T04:29:20.677Z,1009.98
2019-05-16T04:30:21.889Z,1009.95
2019-05-16T04:31:22.006Z,1009.94
2019-05-16T04:32:20.798Z,1009.96
2019-05-16T04:33:21.964Z,1009.95
2019-05-16T04:34:20.667Z,1009.92
2019-05-16T04:35:21.463Z,1009.95
2019-05-16T04:36:21.301Z,1009.95
2019-05-16T04:37:21.801Z,1009.94
2019-05-16T04:38:31.656Z,1009.89
2019-05-16T04:39:20.884Z,1009.92
2019-05-16T04:40:21.647Z,1009.87
2019-05-16T04:41:21.227Z,1009.90
2019-05-16T04:42:21.377Z,1009.98
2019-05-16T04:43:21.585Z,1009.89
2019-05-16T04:44:21.189Z,1009.90
2019-05-16T04:45:21.147Z,1009.83
2019-05-16T04:46:21.448Z,1009.87
2019-05-16T04:47:21.046Z,1009.86
2019-05-16T04:48:21.832Z,1009.77
2019-05-16T04:49:21.218Z,1009.81
2019-05-16T04:50:21.064Z,1009.84
2019-05-16T04:51:21.609Z,1009.76
2019-05-16T04:52:21.508Z,1009.78
2019-05-16T04:53:20.754Z,1009.81
2019-05-16T04:54:21.366Z,1009.80
2019-05-16T04:55:21.082Z,1009.85
2019-05-16T04:56:21.280Z,1009.78
2019-05-16T04:57:20.918Z,1009.81
2019-05-16T04:58:22.962Z,1009.83
2019-05-16T04:59:20.832Z,1009.81
2019-05-16T05:00:21.177Z,1009.74
2019-05-16T05:01:21.522Z,1009.80
2019-05-16T05:02:21.233Z,1009.72
2019-05-16T05:03:20.860Z,1009.79
2019-05-16T05:04:21.140Z,1009.76
2019-05-16T05:05:21.514Z,1009.67
2019-05-16T05:06:20.787Z,1009.76
2019-05-16T05:07:20.638Z,1009.71
2019-05-16T05:08:21.377Z,1009.71
2019-05-16T05:09:20.949Z,1009.76
2019-05-16T05:10:20.658Z,1009.73
2019-05-16T05:11:21.226Z,1009.66
2019-05-16T05:12:20.756Z,1009.73
2019-05-16T05:13:21.631Z,1009.76
2019-05-16T05:14:21.011Z,1009.80
2019-05-16T05:15:21.060Z,1009.77
2019-05-16T05:16:20.347Z,1009.80
2019-05-16T05:17:20.872Z,1009.77
2019-05-16T05:18:21.032Z,1009.84
2019-05-16T05:19:20.250Z,1009.79
2019-05-16T05:20:20.842Z,1009.73
2019-05-16T05:21:20.714Z,1009.71
2019-05-16T05:22:19.879Z,1009.70
2019-05-16T05:23:20.706Z,1009.62
2019-05-16T05:24:19.712Z,1009.58
2019-05-16T05:25:20.438Z,1009.60
2019-05-16T05:26:20.011Z,1009.56
2019-05-16T05:27:19.742Z,1009.55
2019-05-16T05:28:20.747Z,1009.63
2019-05-16T05:29:20.069Z,1009.71
2019-05-16T05:30:19.823Z,1009.63
2019-05-16T05:31:23.941Z,1009.70
2019-05-16T05:32:20.007Z,1009.73
2019-05-16T05:33:20.609Z,1009.69
2019-05-16T05:34:19.866Z,1009.67
2019-05-16T05:35:20.651Z,1009.71
2019-05-16T05:36:20.805Z,1009.68
2019-05-16T05:37:20.260Z,1009.72
2019-05-16T05:38:20.824Z,1009.72
2019-05-16T05:39:20.021Z,1009.77
2019-05-16T05:40:20.059Z,1009.74
2019-05-16T05:41:19.861Z,1009.74
2019-05-16T05:42:19.903Z,1009.74
2019-05-16T05:43:18.059Z,1009.72
2019-05-16T05:44:20.181Z,1009.75
2019-05-16T05:45:20.146Z,1009.75
2019-05-16T05:46:20.357Z,1009.66
2019-05-16T05:47:19.986Z,1009.65
2019-05-16T05:48:17.988Z,1009.73
2019-05-16T05:49:20.356Z,1009.65
2019-05-16T05:50:20.042Z,1009.62
2019-05-16T05:51:17.950Z,1009.64
2019-05-16T05:52:20.593Z,1009.59
2019-05-16T05:53:20.449Z,1009.60
2019-05-16T05:54:20.208Z,1009.64
2019-05-16T05:55:19.982Z,1009.64
2019-05-16T05:56:19.760Z,1009.62
2019-05-16T05:57:20.713Z,1009.61
2019-05-16T05:58:20.449Z,1009.62
2019-05-16T05:59:19.938Z,1009.58
2019-05-16T06:00:20.819Z,1009.59
2019-05-16T06:01:20.376Z,1009.59
2019-05-16T06:02:20.004Z,1009.60
2019-05-16T06:03:21.642Z,1009.57
2019-05-16T06:04:19.742Z,1009.56
2019-05-16T06:05:19.964Z,1009.54
2019-05-16T06:06:17.783Z,1009.53
2019-05-16T06:07:17.761Z,1009.46
2019-05-16T06:08:19.939Z,1009.55
2019-05-16T06:09:26.311Z,1009.51
2019-05-16T06:10:19.883Z,1009.52
2019-05-16T06:11:20.300Z,1009.52
2019-05-16T06:12:17.706Z,1009.50
2019-05-16T06:13:20.209Z,1009.51
2019-05-16T06:14:17.695Z,1009.46
2019-05-16T06:15:20.100Z,1009.51
2019-05-16T06:16:20.165Z,1009.49
2019-05-16T06:17:19.928Z,1009.51
2019-05-16T06:18:19.736Z,1009.51
2019-05-16T06:19:17.650Z,1009.48
2019-05-16T06:20:20.134Z,1009.47
2019-05-16T06:21:20.094Z,1009.50
2019-05-16T06:22:17.651Z,1009.47
2019-05-16T06:23:20.257Z,1009.50
2019-05-16T06:24:19.952Z,1009.50
2019-05-16T06:25:17.564Z,1009.43
2019-05-16T06:26:20.167Z,1009.46
2019-05-16T06:27:17.533Z,1009.43
2019-05-16T06:28:20.164Z,1009.48
2019-05-16T06:29:17.571Z,1009.41
2019-05-16T06:30:17.538Z,1009.42
2019-05-16T06:31:17.510Z,1009.43
2019-05-16T06:32:19.650Z,1009.40
2019-05-16T06:33:19.766Z,1009.42
2019-05-16T06:34:17.485Z,1009.43
2019-05-16T06:35:17.464Z,1009.37
2019-05-16T06:36:17.441Z,1009.36
2019-05-16T06:37:17.432Z,1009.34
2019-05-16T06:38:17.436Z,1009.35
2019-05-16T06:39:19.784Z,1009.36
2019-05-16T06:40:17.405Z,1009.33
2019-05-16T06:41:19.727Z,1009.34
2019-05-16T06:42:17.389Z,1009.32
2019-05-16T06:43:17.402Z,1009.39
2019-05-16T06:44:17.358Z,1009.39
2019-05-16T06:45:17.352Z,1009.37
2019-05-16T06:46:17.332Z,1009.45
2019-05-16T06:47:20.028Z,1009.39
2019-05-16T06:48:20.791Z,1009.43
2019-05-16T06:49:19.552Z,1009.41
2019-05-16T06:50:17.297Z,1009.35
2019-05-16T06:51:19.860Z,1009.36
2019-05-16T06:52:19.600Z,1009.31
2019-05-16T06:53:17.302Z,1009.34
2019-05-16T06:54:17.274Z,1009.31
2019-05-16T06:55:17.244Z,1009.36
2019-05-16T06:56:19.793Z,1009.35
2019-05-16T06:57:17.209Z,1009.37
2019-05-16T06:58:17.205Z,1009.33
2019-05-16T06:59:17.204Z,1009.34
2019-05-16T07:00:17.186Z,1009.28
2019-05-16T07:01:17.171Z,1009.30
2019-05-16T07:02:27.633Z,1009.31
2019-05-16T07:03:20.430Z,1009.27
2019-05-16T07:04:17.152Z,1009.28
2019-05-16T07:05:17.122Z,1009.27
2019-05-16T07:06:37.810Z,1009.18
2019-05-16T07:07:20.338Z,1009.28
2019-05-16T07:08:17.093Z,1009.21
2019-05-16T07:09:17.103Z,1009.19
2019-05-16T07:10:17.067Z,1009.21
2019-05-16T07:11:17.054Z,1009.17
2019-05-16T07:12:17.059Z,1009.16
2019-05-16T07:13:19.553Z,1009.11
2019-05-16T07:14:17.057Z,1009.15
2019-05-16T07:15:17.034Z,1009.13
2019-05-16T07:16:16.998Z,1009.13
2019-05-16T07:17:16.985Z,1009.16
2019-05-16T07:18:16.973Z,1009.15
2019-05-16T07:19:16.992Z,1009.13
2019-05-16T07:20:16.992Z,1009.15
2019-05-16T07:21:16.959Z,1009.16
2019-05-16T07:22:16.939Z,1009.17
2019-05-16T07:23:16.933Z,1009.09
2019-05-16T07:24:17.104Z,1009.11
2019-05-16T07:25:16.913Z,1009.17
2019-05-16T07:26:16.897Z,1009.11
2019-05-16T07:27:16.892Z,1009.19
2019-05-16T07:28:16.881Z,1009.14
2019-05-16T07:29:16.877Z,1009.16
2019-05-16T07:30:16.853Z,1009.13
2019-05-16T07:31:19.005Z,1009.16
2019-05-16T07:32:19.870Z,1009.07
2019-05-16T07:33:16.825Z,1009.09
2019-05-16T07:34:16.828Z,1009.10
2019-05-16T07:35:16.802Z,1009.12
2019-05-16T07:36:16.785Z,1009.15
2019-05-16T07:37:16.775Z,1009.17
2019-05-16T07:38:16.773Z,1009.19
2019-05-16T07:39:16.766Z,1009.12
2019-05-16T07:40:23.670Z,1009.15
2019-05-16T07:41:19.853Z,1009.16
2019-05-16T07:42:16.723Z,1009.14
2019-05-16T07:43:16.712Z,1009.10
2019-05-16T07:44:16.718Z,1009.10
2019-05-16T07:45:16.696Z,1009.10
2019-05-16T07:46:16.666Z,1009.06
2019-05-16T07:47:16.674Z,1009.07
2019-05-16T07:48:16.667Z,1009.11
2019-05-16T07:49:16.666Z,1009.11
2019-05-16T07:50:16.637Z,1009.07
2019-05-16T07:51:16.626Z,1009.04
2019-05-16T07:52:16.609Z,1009.02
2019-05-16T07:53:16.593Z,1009.01
2019-05-16T07:54:16.849Z,1008.99
2019-05-16T07:55:16.598Z,1008.96
2019-05-16T07:56:16.553Z,1008.94
2019-05-16T07:57:20.443Z,1008.89
2019-05-16T07:58:21.234Z,1008.86
2019-05-16T07:59:16.538Z,1008.86
2019-05-16T08:00:16.536Z,1008.89
2019-05-16T08:01:16.541Z,1008.90
2019-05-16T08:02:16.503Z,1008.86
2019-05-16T08:03:16.496Z,1008.88
2019-05-16T08:04:16.491Z,1008.89
2019-05-16T08:05:16.485Z,1008.91
2019-05-16T08:06:16.463Z,1008.93
2019-05-16T08:07:16.443Z,1008.90
2019-05-16T08:08:16.435Z,1008.90
2019-05-16T08:09:16.438Z,1008.93
2019-05-16T08:11:17.407Z,1008.92
2019-05-16T08:12:22.343Z,1008.88
2019-05-16T08:13:18.525Z,1008.85
2019-05-16T08:14:16.387Z,1008.80
2019-05-16T08:15:16.351Z,1008.87
2019-05-16T08:16:16.350Z,1008.82
2019-05-16T08:17:16.333Z,1008.85
2019-05-16T08:18:16.318Z,1008.86
2019-05-16T08:19:16.334Z,1008.91
2019-05-16T08:20:16.304Z,1008.90
2019-05-16T08:21:16.981Z,1008.91
2019-05-16T08:22:16.288Z,1008.90
2019-05-16T08:23:16.274Z,1008.85
2019-05-16T08:24:16.288Z,1008.88
2019-05-16T08:25:16.261Z,1008.83
2019-05-16T08:26:16.248Z,1008.82
2019-05-16T08:27:16.226Z,1008.81
2019-05-16T08:28:16.219Z,1008.78
2019-05-16T08:29:16.197Z,1008.82
2019-05-16T08:30:16.198Z,1008.81
2019-05-16T08:31:16.208Z,1008.84
2019-05-16T08:32:16.196Z,1008.82
2019-05-16T08:33:16.187Z,1008.81
2019-05-16T08:34:16.157Z,1008.80
2019-05-16T08:35:16.167Z,1008.81
2019-05-16T08:36:16.153Z,1008.79
2019-05-16T08:37:33.922Z,1008.79
2019-05-16T08:38:21.085Z,1008.80
2019-05-16T08:39:16.084Z,1008.79
2019-05-16T08:40:16.095Z,1008.77
2019-05-16T08:42:17.049Z,1008.74
2019-05-16T08:43:16.039Z,1008.75
2019-05-16T08:44:16.040Z,1008.73
2019-05-16T08:45:16.043Z,1008.78
2019-05-16T08:46:16.029Z,1008.77
2019-05-16T08:47:16.008Z,1008.76
2019-05-16T08:48:15.992Z,1008.75
2019-05-16T08:49:15.970Z,1008.75
2019-05-16T08:50:05.092Z,1008.92
2019-05-16T08:50:15.980Z,1008.72
2019-05-16T08:51:15.952Z,1008.75
2019-05-16T08:52:15.957Z,1008.75
2019-05-16T08:53:15.964Z,1008.74
2019-05-16T08:54:15.930Z,1008.73
2019-05-16T08:55:15.938Z,1008.68
2019-05-16T08:56:15.906Z,1008.71
2019-05-16T08:57:27.071Z,1008.75
2019-05-16T08:58:16.887Z,1008.73
2019-05-16T08:59:15.872Z,1008.74
2019-05-16T09:00:15.893Z,1008.70
2019-05-16T09:01:15.845Z,1008.69
2019-05-16T09:02:15.838Z,1008.70
2019-05-16T09:03:15.819Z,1008.68
2019-05-16T09:04:15.869Z,1008.66
2019-05-16T09:05:15.824Z,1008.64
2019-05-16T09:06:15.808Z,1008.71
2019-05-16T09:07:15.792Z,1008.70
2019-05-16T09:08:15.775Z,1008.63
2019-05-16T09:09:29.523Z,1008.72
2019-05-16T09:10:34.934Z,1008.75
2019-05-16T09:11:31.358Z,1008.65
2019-05-16T09:12:17.254Z,1008.60
2019-05-16T09:13:17.578Z,1008.51
2019-05-16T09:14:17.227Z,1008.53
2019-05-16T09:15:17.120Z,1008.49
2019-05-16T09:16:18.286Z,1008.53
2019-05-16T09:17:18.014Z,1008.49
2019-05-16T09:18:17.783Z,1008.50
2019-05-16T09:19:16.974Z,1008.49
2019-05-16T09:20:17.370Z,1008.47
2019-05-16T09:21:18.311Z,1008.46
2019-05-16T09:22:17.871Z,1008.50
2019-05-16T09:23:17.872Z,1008.43
2019-05-16T09:24:17.933Z,1008.43
2019-05-16T09:25:18.183Z,1008.39
2019-05-16T09:26:18.969Z,1008.41
2019-05-16T09:27:17.912Z,1008.40
2019-05-16T09:28:16.814Z,1008.46
2019-05-16T09:29:16.752Z,1008.41
2019-05-16T09:30:17.287Z,1008.40
2019-05-16T09:31:17.891Z,1008.42
2019-05-16T09:32:27.073Z,1008.39
2019-05-16T09:33:17.610Z,1008.38
2019-05-16T09:34:17.569Z,1008.35
2019-05-16T09:35:17.187Z,1008.36
2019-05-16T09:36:17.431Z,1008.43
2019-05-16T09:37:17.709Z,1008.40
2019-05-16T09:38:20.301Z,1008.42
2019-05-16T09:39:17.071Z,1008.40
2019-05-16T09:40:17.231Z,1008.48
2019-05-16T09:41:16.875Z,1008.49
2019-05-16T09:42:17.134Z,1008.48
2019-05-16T09:43:17.699Z,1008.44
2019-05-16T09:44:18.202Z,1008.38
2019-05-16T09:45:17.075Z,1008.36
2019-05-16T09:46:17.141Z,1008.40
2019-05-16T09:47:17.536Z,1008.29
2019-05-16T09:48:18.476Z,1008.27
2019-05-16T09:49:22.711Z,1008.28
2019-05-16T09:50:17.368Z,1008.25
2019-05-16T09:51:17.309Z,1008.24
2019-05-16T09:52:16.534Z,1008.27
2019-05-16T09:53:17.026Z,1008.21
2019-05-16T09:54:16.779Z,1008.23
2019-05-16T09:55:17.423Z,1008.20
2019-05-16T09:56:16.865Z,1008.20
2019-05-16T09:57:17.433Z,1008.23
2019-05-16T09:58:17.925Z,1008.26
2019-05-16T09:59:17.299Z,1008.22
2019-05-16T10:00:17.713Z,1008.25
2019-05-16T10:01:17.406Z,1008.29
2019-05-16T10:02:17.433Z,1008.24
2019-05-16T10:03:17.837Z,1008.21
2019-05-16T10:04:17.405Z,1008.26
2019-05-16T10:05:16.944Z,1008.26
2019-05-16T10:06:19.153Z,1008.23
2019-05-16T10:07:17.852Z,1008.22
2019-05-16T10:08:17.280Z,1008.25
2019-05-16T10:09:17.459Z,1008.26
2019-05-16T10:10:17.114Z,1008.25
2019-05-16T10:11:18.012Z,1008.31
2019-05-16T10:12:16.383Z,1008.32
2019-05-16T10:13:18.022Z,1008.27
2019-05-16T10:14:17.225Z,1008.35
2019-05-16T10:15:17.426Z,1008.29
2019-05-16T10:16:16.744Z,1008.32
2019-05-16T10:17:17.623Z,1008.27
2019-05-16T10:18:16.923Z,1008.28
2019-05-16T10:19:16.911Z,1008.23
2019-05-16T10:20:16.894Z,1008.22
2019-05-16T10:21:17.890Z,1008.15
2019-05-16T10:22:17.088Z,1008.17
2019-05-16T10:23:17.540Z,1008.16
2019-05-16T10:24:14.946Z,1008.17
2019-05-16T10:25:19.017Z,1008.24
2019-05-16T10:26:17.178Z,1008.17
2019-05-16T10:27:16.978Z,1008.25
2019-05-16T10:28:17.324Z,1008.22
2019-05-16T10:29:18.404Z,1008.18
2019-05-16T10:30:17.403Z,1008.13
2019-05-16T10:31:17.592Z,1008.09
2019-05-16T10:32:16.745Z,1008.11
2019-05-16T10:33:18.918Z,1008.08
2019-05-16T10:34:17.230Z,1008.06
2019-05-16T10:35:14.822Z,1008.07
2019-05-16T10:36:17.129Z,1008.03
2019-05-16T10:37:17.663Z,1008.05
2019-05-16T10:38:14.783Z,1008.07
2019-05-16T10:39:14.764Z,1008.04
2019-05-16T10:40:14.768Z,1008.01
2019-05-16T10:41:14.762Z,1008.03
2019-05-16T10:42:25.027Z,1008.05
2019-05-16T10:43:17.340Z,1008.08
2019-05-16T10:44:17.224Z,1008.07
2019-05-16T10:45:16.577Z,1008.13
2019-05-16T10:46:17.453Z,1008.11
2019-05-16T10:47:17.157Z,1008.14
2019-05-16T10:48:17.286Z,1008.13
2019-05-16T10:49:16.643Z,1008.07
2019-05-16T10:50:16.685Z,1008.06
2019-05-16T10:51:16.793Z,1008.04
2019-05-16T10:52:16.594Z,1008.04
2019-05-16T10:53:33.536Z,1008.07
2019-05-16T10:54:18.252Z,1008.08
2019-05-16T10:55:17.467Z,1008.05
2019-05-16T10:56:14.638Z,1008.06
2019-05-16T10:57:14.597Z,1007.96
2019-05-16T10:58:31.183Z,1008.00
2019-05-16T10:59:53.333Z,1007.99
2019-05-16T11:00:34.904Z,1007.96
2019-05-16T11:01:26.506Z,1007.95
2019-05-16T11:02:16.711Z,1008.01
2019-05-16T11:03:16.974Z,1007.95
2019-05-16T11:04:26.191Z,1007.93
2019-05-16T11:05:28.853Z,1007.95
2019-05-16T11:06:25.156Z,1007.90
2019-05-16T11:07:15.470Z,1007.91
2019-05-16T11:08:14.452Z,1007.91
2019-05-16T11:09:17.192Z,1007.92
2019-05-16T11:10:14.463Z,1007.90
2019-05-16T11:11:14.417Z,1007.96
2019-05-16T11:12:19.944Z,1007.91
2019-05-16T11:13:17.134Z,1007.89
2019-05-16T11:14:17.090Z,1007.92
2019-05-16T11:15:17.018Z,1007.97
2019-05-16T11:16:14.354Z,1007.95
2019-05-16T11:17:14.361Z,1008.00
2019-05-16T11:18:14.336Z,1007.98
2019-05-16T11:19:21.358Z,1008.02
2019-05-16T11:20:19.639Z,1008.06
2019-05-16T11:21:14.319Z,1007.97
2019-05-16T11:22:14.308Z,1007.98
2019-05-16T11:23:14.282Z,1007.97
2019-05-16T11:24:14.280Z,1007.95
2019-05-16T11:25:24.863Z,1007.98
2019-05-16T11:26:15.248Z,1007.95
2019-05-16T11:27:14.253Z,1007.98
2019-05-16T11:28:17.456Z,1007.92
2019-05-16T11:29:16.366Z,1008.02
2019-05-16T11:30:14.288Z,1008.00
2019-05-16T11:31:14.192Z,1007.98
2019-05-16T11:32:14.198Z,1008.00
2019-05-16T11:33:17.149Z,1008.06
2019-05-16T11:34:14.167Z,1007.98
2019-05-16T11:35:16.909Z,1008.06
2019-05-16T11:36:16.540Z,1007.95
2019-05-16T11:37:14.134Z,1007.96
2019-05-16T11:38:14.122Z,1008.00
2019-05-16T11:39:14.106Z,1008.00
2019-05-16T11:40:14.095Z,1007.96
2019-05-16T11:41:16.566Z,1007.90
2019-05-16T11:42:14.070Z,1007.93
2019-05-16T11:43:18.327Z,1007.92
2019-05-16T11:44:17.394Z,1007.94
2019-05-16T11:45:16.430Z,1007.95
2019-05-16T11:46:14.032Z,1007.94
2019-05-16T11:47:16.462Z,1007.90
2019-05-16T11:48:14.000Z,1007.90
2019-05-16T11:49:16.531Z,1007.88
2019-05-16T11:50:13.998Z,1007.92
2019-05-16T11:51:13.965Z,1007.89
2019-05-16T11:52:14.017Z,1007.90
2019-05-16T11:53:13.952Z,1007.85
2019-05-16T11:54:13.930Z,1007.89
2019-05-16T11:55:13.931Z,1007.85
2019-05-16T11:56:13.941Z,1007.86
2019-05-16T11:57:13.916Z,1007.88
2019-05-16T11:58:13.897Z,1007.81
2019-05-16T11:59:13.886Z,1007.81
2019-05-16T12:00:13.870Z,1007.73
2019-05-16T12:01:16.386Z,1007.70
2019-05-16T12:02:13.861Z,1007.69
2019-05-16T12:03:13.832Z,1007.74
2019-05-16T12:04:13.826Z,1007.73
2019-05-16T12:05:13.817Z,1007.77
2019-05-16T12:06:13.811Z,1007.81